sensor_id;sensor_type;location;lat;lon;timestamp;P1;durP1;ratioP1;P2;durP2;ratioP2
11539;SDS011;5826;54.756;9.192;2023-01-20T00:01:36;0.40;;;0.40;;
11539;SDS011;5826;54.756;9.192;2023-01-20T00:04:03;1.43;;;0.60;;
11539;SDS011;5826;54.756;9.192;2023-01-20T00:06:29;0.50;;;0.50;;
11539;SDS011;5826;54.756;9.192;2023-01-20T00:08:56;2.57;;;0.80;;
11539;SDS011;5826;54.756;9.192;2023-01-20T00:11:24;0.70;;;0.70;;
11539;SDS011;5826;54.756;9.192;2023-01-20T00:13:54;1.33;;;0.97;;
11539;SDS011;5826;54.756;9.192;2023-01-20T00:16:21;2.00;;;1.20;;
11539;SDS011;5826;54.756;9.192;2023-01-20T00:18:47;1.00;;;0.97;;
11539;SDS011;5826;54.756;9.192;2023-01-20T00:21:13;1.97;;;1.30;;
11539;SDS011;5826;54.756;9.192;2023-01-20T00:23:41;1.77;;;1.50;;
11539;SDS011;5826;54.756;9.192;2023-01-20T00:26:11;1.30;;;1.20;;
11539;SDS011;5826;54.756;9.192;2023-01-20T00:28:38;2.53;;;1.50;;
11539;SDS011;5826;54.756;9.192;2023-01-20T00:33:37;2.30;;;2.10;;
11539;SDS011;5826;54.756;9.192;2023-01-20T00:36:03;3.70;;;2.00;;
11539;SDS011;5826;54.756;9.192;2023-01-20T00:38:29;2.40;;;2.00;;
11539;SDS011;5826;54.756;9.192;2023-01-20T00:40:54;2.37;;;1.90;;
11539;SDS011;5826;54.756;9.192;2023-01-20T00:43:20;2.47;;;2.20;;
11539;SDS011;5826;54.756;9.192;2023-01-20T00:45:46;1.90;;;1.80;;
11539;SDS011;5826;54.756;9.192;2023-01-20T00:48:11;2.80;;;1.83;;
11539;SDS011;5826;54.756;9.192;2023-01-20T00:50:37;2.63;;;2.23;;
11539;SDS011;5826;54.756;9.192;2023-01-20T00:53:02;2.50;;;2.30;;
11539;SDS011;5826;54.756;9.192;2023-01-20T00:55:28;2.40;;;2.20;;
11539;SDS011;5826;54.756;9.192;2023-01-20T00:57:53;3.10;;;2.60;;
11539;SDS011;5826;54.756;9.192;2023-01-20T01:00:19;3.20;;;2.63;;
11539;SDS011;5826;54.756;9.192;2023-01-20T01:02:45;3.73;;;2.80;;
11539;SDS011;5826;54.756;9.192;2023-01-20T01:05:10;2.50;;;2.30;;
11539;SDS011;5826;54.756;9.192;2023-01-20T01:07:36;2.87;;;2.23;;
11539;SDS011;5826;54.756;9.192;2023-01-20T01:10:01;3.43;;;2.47;;
11539;SDS011;5826;54.756;9.192;2023-01-20T01:12:27;4.10;;;2.60;;
11539;SDS011;5826;54.756;9.192;2023-01-20T01:14:53;2.97;;;2.50;;
11539;SDS011;5826;54.756;9.192;2023-01-20T01:17:18;2.53;;;2.30;;
11539;SDS011;5826;54.756;9.192;2023-01-20T01:19:45;3.40;;;2.37;;
11539;SDS011;5826;54.756;9.192;2023-01-20T01:22:10;3.23;;;2.40;;
11539;SDS011;5826;54.756;9.192;2023-01-20T01:24:36;3.60;;;2.67;;
11539;SDS011;5826;54.756;9.192;2023-01-20T01:27:01;2.60;;;2.27;;
11539;SDS011;5826;54.756;9.192;2023-01-20T01:29:28;3.87;;;2.30;;
11539;SDS011;5826;54.756;9.192;2023-01-20T01:31:53;3.50;;;2.70;;
11539;SDS011;5826;54.756;9.192;2023-01-20T01:34:19;2.83;;;2.47;;
11539;SDS011;5826;54.756;9.192;2023-01-20T01:36:44;2.53;;;2.30;;
11539;SDS011;5826;54.756;9.192;2023-01-20T01:39:10;3.17;;;2.53;;
11539;SDS011;5826;54.756;9.192;2023-01-20T01:41:35;2.87;;;2.30;;
11539;SDS011;5826;54.756;9.192;2023-01-20T01:44:02;2.63;;;2.17;;
11539;SDS011;5826;54.756;9.192;2023-01-20T01:46:31;4.53;;;2.83;;
11539;SDS011;5826;54.756;9.192;2023-01-20T01:48:57;3.53;;;2.50;;
11539;SDS011;5826;54.756;9.192;2023-01-20T01:51:27;2.47;;;2.17;;
11539;SDS011;5826;54.756;9.192;2023-01-20T01:54:13;2.53;;;2.33;;
11539;SDS011;5826;54.756;9.192;2023-01-20T01:56:42;2.33;;;2.13;;
11539;SDS011;5826;54.756;9.192;2023-01-20T01:59:10;2.63;;;1.97;;
11539;SDS011;5826;54.756;9.192;2023-01-20T02:01:38;2.67;;;1.93;;
11539;SDS011;5826;54.756;9.192;2023-01-20T02:04:11;2.00;;;1.80;;
11539;SDS011;5826;54.756;9.192;2023-01-20T02:06:41;2.03;;;1.63;;
11539;SDS011;5826;54.756;9.192;2023-01-20T02:09:12;1.50;;;1.40;;
11539;SDS011;5826;54.756;9.192;2023-01-20T02:11:39;2.97;;;1.73;;
11539;SDS011;5826;54.756;9.192;2023-01-20T02:14:13;2.03;;;1.53;;
11539;SDS011;5826;54.756;9.192;2023-01-20T02:28:06;2.60;;;1.60;;
11539;SDS011;5826;54.756;9.192;2023-01-20T02:33:39;2.07;;;1.60;;
11539;SDS011;5826;54.756;9.192;2023-01-20T02:36:08;1.77;;;1.67;;
11539;SDS011;5826;54.756;9.192;2023-01-20T02:44:40;2.47;;;1.33;;
11539;SDS011;5826;54.756;9.192;2023-01-20T02:52:25;1.40;;;1.20;;
11539;SDS011;5826;54.756;9.192;2023-01-20T02:54:54;1.43;;;1.33;;
11539;SDS011;5826;54.756;9.192;2023-01-20T02:57:24;1.30;;;1.20;;
11539;SDS011;5826;54.756;9.192;2023-01-20T02:59:58;1.67;;;1.30;;
11539;SDS011;5826;54.756;9.192;2023-01-20T03:02:29;1.50;;;1.40;;
11539;SDS011;5826;54.756;9.192;2023-01-20T03:04:59;1.90;;;1.40;;
11539;SDS011;5826;54.756;9.192;2023-01-20T03:07:31;1.53;;;1.30;;
11539;SDS011;5826;54.756;9.192;2023-01-20T03:10:00;1.27;;;1.17;;
11539;SDS011;5826;54.756;9.192;2023-01-20T03:12:30;1.20;;;1.10;;
11539;SDS011;5826;54.756;9.192;2023-01-20T03:15:00;0.93;;;0.80;;
11539;SDS011;5826;54.756;9.192;2023-01-20T03:17:26;1.17;;;0.83;;
11539;SDS011;5826;54.756;9.192;2023-01-20T03:19:51;0.73;;;0.73;;
11539;SDS011;5826;54.756;9.192;2023-01-20T03:22:17;0.70;;;0.60;;
11539;SDS011;5826;54.756;9.192;2023-01-20T03:24:43;0.50;;;0.50;;
11539;SDS011;5826;54.756;9.192;2023-01-20T03:27:11;1.67;;;0.80;;
11539;SDS011;5826;54.756;9.192;2023-01-20T03:29:37;2.23;;;0.70;;
11539;SDS011;5826;54.756;9.192;2023-01-20T03:32:02;0.50;;;0.40;;
11539;SDS011;5826;54.756;9.192;2023-01-20T03:34:30;0.77;;;0.50;;
11539;SDS011;5826;54.756;9.192;2023-01-20T03:36:59;1.30;;;0.50;;
11539;SDS011;5826;54.756;9.192;2023-01-20T03:39:26;1.07;;;0.40;;
11539;SDS011;5826;54.756;9.192;2023-01-20T03:44:54;0.47;;;0.33;;
11539;SDS011;5826;54.756;9.192;2023-01-20T03:47:40;0.60;;;0.40;;
11539;SDS011;5826;54.756;9.192;2023-01-20T03:53:11;1.27;;;0.47;;
11539;SDS011;5826;54.756;9.192;2023-01-20T03:55:51;1.67;;;0.60;;
11539;SDS011;5826;54.756;9.192;2023-01-20T03:58:27;1.10;;;0.50;;
11539;SDS011;5826;54.756;9.192;2023-01-20T04:00:55;0.70;;;0.40;;
11539;SDS011;5826;54.756;9.192;2023-01-20T04:03:25;0.67;;;0.40;;
11539;SDS011;5826;54.756;9.192;2023-01-20T04:05:55;0.30;;;0.30;;
11539;SDS011;5826;54.756;9.192;2023-01-20T04:08:24;0.30;;;0.30;;
11539;SDS011;5826;54.756;9.192;2023-01-20T04:10:54;1.13;;;0.40;;
11539;SDS011;5826;54.756;9.192;2023-01-20T04:13:22;0.90;;;0.40;;
11539;SDS011;5826;54.756;9.192;2023-01-20T04:15:48;0.20;;;0.20;;
11539;SDS011;5826;54.756;9.192;2023-01-20T04:18:15;0.80;;;0.20;;
11539;SDS011;5826;54.756;9.192;2023-01-20T04:20:46;0.67;;;0.30;;
11539;SDS011;5826;54.756;9.192;2023-01-20T04:23:20;0.20;;;0.20;;
11539;SDS011;5826;54.756;9.192;2023-01-20T04:25:51;0.20;;;0.20;;
11539;SDS011;5826;54.756;9.192;2023-01-20T04:28:16;0.27;;;0.27;;
11539;SDS011;5826;54.756;9.192;2023-01-20T04:30:42;0.20;;;0.20;;
11539;SDS011;5826;54.756;9.192;2023-01-20T04:33:07;0.20;;;0.20;;
11539;SDS011;5826;54.756;9.192;2023-01-20T04:35:33;0.30;;;0.27;;
11539;SDS011;5826;54.756;9.192;2023-01-20T04:37:58;0.27;;;0.27;;
11539;SDS011;5826;54.756;9.192;2023-01-20T04:40:24;0.40;;;0.40;;
11539;SDS011;5826;54.756;9.192;2023-01-20T04:42:50;0.63;;;0.40;;
11539;SDS011;5826;54.756;9.192;2023-01-20T04:45:15;0.50;;;0.40;;
11539;SDS011;5826;54.756;9.192;2023-01-20T04:47:41;0.20;;;0.20;;
11539;SDS011;5826;54.756;9.192;2023-01-20T04:50:08;0.33;;;0.17;;
11539;SDS011;5826;54.756;9.192;2023-01-20T04:52:34;0.20;;;0.20;;
11539;SDS011;5826;54.756;9.192;2023-01-20T04:55:01;0.40;;;0.30;;
11539;SDS011;5826;54.756;9.192;2023-01-20T04:57:26;0.60;;;0.50;;
11539;SDS011;5826;54.756;9.192;2023-01-20T04:59:52;0.40;;;0.30;;
11539;SDS011;5826;54.756;9.192;2023-01-20T05:02:17;0.30;;;0.30;;
11539;SDS011;5826;54.756;9.192;2023-01-20T05:04:43;0.23;;;0.23;;
11539;SDS011;5826;54.756;9.192;2023-01-20T05:07:09;0.40;;;0.30;;
11539;SDS011;5826;54.756;9.192;2023-01-20T05:09:35;0.47;;;0.37;;
11539;SDS011;5826;54.756;9.192;2023-01-20T05:12:00;0.30;;;0.23;;
11539;SDS011;5826;54.756;9.192;2023-01-20T05:14:26;0.90;;;0.30;;
11539;SDS011;5826;54.756;9.192;2023-01-20T05:16:51;0.63;;;0.30;;
11539;SDS011;5826;54.756;9.192;2023-01-20T05:19:17;0.40;;;0.30;;
11539;SDS011;5826;54.756;9.192;2023-01-20T05:21:42;0.70;;;0.20;;
11539;SDS011;5826;54.756;9.192;2023-01-20T05:24:08;0.10;;;0.10;;
11539;SDS011;5826;54.756;9.192;2023-01-20T05:26:34;0.20;;;0.20;;
11539;SDS011;5826;54.756;9.192;2023-01-20T05:28:59;0.60;;;0.30;;
11539;SDS011;5826;54.756;9.192;2023-01-20T05:31:26;0.30;;;0.30;;
11539;SDS011;5826;54.756;9.192;2023-01-20T05:33:52;0.50;;;0.40;;
11539;SDS011;5826;54.756;9.192;2023-01-20T05:36:17;0.80;;;0.60;;
11539;SDS011;5826;54.756;9.192;2023-01-20T05:38:43;0.50;;;0.50;;
11539;SDS011;5826;54.756;9.192;2023-01-20T05:41:08;1.00;;;0.40;;
11539;SDS011;5826;54.756;9.192;2023-01-20T05:43:34;0.80;;;0.50;;
11539;SDS011;5826;54.756;9.192;2023-01-20T05:46:00;0.60;;;0.40;;
11539;SDS011;5826;54.756;9.192;2023-01-20T05:48:26;0.60;;;0.43;;
11539;SDS011;5826;54.756;9.192;2023-01-20T05:50:51;1.00;;;0.63;;
11539;SDS011;5826;54.756;9.192;2023-01-20T05:53:17;0.60;;;0.60;;
11539;SDS011;5826;54.756;9.192;2023-01-20T05:55:43;0.53;;;0.53;;
11539;SDS011;5826;54.756;9.192;2023-01-20T05:58:09;2.73;;;0.60;;
11539;SDS011;5826;54.756;9.192;2023-01-20T06:00:35;0.60;;;0.30;;
11539;SDS011;5826;54.756;9.192;2023-01-20T06:03:01;1.20;;;0.50;;
11539;SDS011;5826;54.756;9.192;2023-01-20T06:05:26;1.50;;;0.40;;
11539;SDS011;5826;54.756;9.192;2023-01-20T06:07:55;1.43;;;0.37;;
11539;SDS011;5826;54.756;9.192;2023-01-20T06:10:20;0.73;;;0.47;;
11539;SDS011;5826;54.756;9.192;2023-01-20T06:12:52;0.70;;;0.50;;
11539;SDS011;5826;54.756;9.192;2023-01-20T06:15:21;2.37;;;0.40;;
11539;SDS011;5826;54.756;9.192;2023-01-20T06:17:47;1.60;;;0.50;;
11539;SDS011;5826;54.756;9.192;2023-01-20T06:20:14;0.43;;;0.40;;
11539;SDS011;5826;54.756;9.192;2023-01-20T06:22:39;0.40;;;0.30;;
11539;SDS011;5826;54.756;9.192;2023-01-20T06:25:05;1.33;;;0.53;;
11539;SDS011;5826;54.756;9.192;2023-01-20T06:27:31;1.03;;;0.60;;
11539;SDS011;5826;54.756;9.192;2023-01-20T06:29:56;0.40;;;0.40;;
11539;SDS011;5826;54.756;9.192;2023-01-20T06:32:22;0.90;;;0.50;;
11539;SDS011;5826;54.756;9.192;2023-01-20T06:34:47;1.40;;;0.40;;
11539;SDS011;5826;54.756;9.192;2023-01-20T06:37:13;0.33;;;0.30;;
11539;SDS011;5826;54.756;9.192;2023-01-20T06:39:38;0.83;;;0.50;;
11539;SDS011;5826;54.756;9.192;2023-01-20T06:42:04;0.80;;;0.50;;
11539;SDS011;5826;54.756;9.192;2023-01-20T06:44:30;0.60;;;0.40;;
11539;SDS011;5826;54.756;9.192;2023-01-20T06:46:58;1.57;;;0.43;;
11539;SDS011;5826;54.756;9.192;2023-01-20T06:49:23;0.73;;;0.57;;
11539;SDS011;5826;54.756;9.192;2023-01-20T06:51:49;0.80;;;0.40;;
11539;SDS011;5826;54.756;9.192;2023-01-20T06:54:15;0.50;;;0.50;;
11539;SDS011;5826;54.756;9.192;2023-01-20T06:56:40;1.90;;;0.50;;
11539;SDS011;5826;54.756;9.192;2023-01-20T06:59:06;1.53;;;0.50;;
11539;SDS011;5826;54.756;9.192;2023-01-20T07:01:33;0.53;;;0.40;;
11539;SDS011;5826;54.756;9.192;2023-01-20T07:03:58;1.07;;;0.40;;
11539;SDS011;5826;54.756;9.192;2023-01-20T07:06:28;1.27;;;0.40;;
11539;SDS011;5826;54.756;9.192;2023-01-20T07:08:56;0.80;;;0.40;;
11539;SDS011;5826;54.756;9.192;2023-01-20T07:11:22;1.53;;;0.60;;
11539;SDS011;5826;54.756;9.192;2023-01-20T07:13:47;1.80;;;0.70;;
11539;SDS011;5826;54.756;9.192;2023-01-20T07:16:13;2.13;;;0.40;;
11539;SDS011;5826;54.756;9.192;2023-01-20T07:18:39;0.60;;;0.50;;
11539;SDS011;5826;54.756;9.192;2023-01-20T07:21:05;0.40;;;0.40;;
11539;SDS011;5826;54.756;9.192;2023-01-20T07:23:31;2.30;;;0.40;;
11539;SDS011;5826;54.756;9.192;2023-01-20T07:26:01;0.40;;;0.40;;
11539;SDS011;5826;54.756;9.192;2023-01-20T07:28:29;0.93;;;0.40;;
11539;SDS011;5826;54.756;9.192;2023-01-20T07:30:55;1.00;;;0.60;;
11539;SDS011;5826;54.756;9.192;2023-01-20T07:33:26;0.60;;;0.50;;
11539;SDS011;5826;54.756;9.192;2023-01-20T07:35:52;1.23;;;0.50;;
11539;SDS011;5826;54.756;9.192;2023-01-20T07:38:18;1.37;;;0.50;;
11539;SDS011;5826;54.756;9.192;2023-01-20T07:40:43;3.03;;;0.60;;
11539;SDS011;5826;54.756;9.192;2023-01-20T07:43:09;1.20;;;0.50;;
11539;SDS011;5826;54.756;9.192;2023-01-20T07:45:34;0.40;;;0.40;;
11539;SDS011;5826;54.756;9.192;2023-01-20T07:48:00;1.80;;;0.50;;
11539;SDS011;5826;54.756;9.192;2023-01-20T07:50:27;1.47;;;0.60;;
11539;SDS011;5826;54.756;9.192;2023-01-20T07:52:53;0.80;;;0.53;;
11539;SDS011;5826;54.756;9.192;2023-01-20T07:55:19;0.87;;;0.57;;
11539;SDS011;5826;54.756;9.192;2023-01-20T07:57:44;1.17;;;0.60;;
11539;SDS011;5826;54.756;9.192;2023-01-20T08:00:10;0.50;;;0.50;;
11539;SDS011;5826;54.756;9.192;2023-01-20T08:02:38;0.83;;;0.50;;
11539;SDS011;5826;54.756;9.192;2023-01-20T08:05:04;0.70;;;0.50;;
11539;SDS011;5826;54.756;9.192;2023-01-20T08:07:30;0.73;;;0.50;;
11539;SDS011;5826;54.756;9.192;2023-01-20T08:09:56;1.00;;;0.70;;
11539;SDS011;5826;54.756;9.192;2023-01-20T08:12:21;0.83;;;0.40;;
11539;SDS011;5826;54.756;9.192;2023-01-20T08:14:47;1.17;;;0.43;;
11539;SDS011;5826;54.756;9.192;2023-01-20T08:17:13;2.83;;;0.80;;
11539;SDS011;5826;54.756;9.192;2023-01-20T08:19:39;2.83;;;1.60;;
11539;SDS011;5826;54.756;9.192;2023-01-20T08:22:04;2.73;;;1.57;;
11539;SDS011;5826;54.756;9.192;2023-01-20T08:24:30;1.80;;;1.00;;
11539;SDS011;5826;54.756;9.192;2023-01-20T08:26:55;1.90;;;0.93;;
11539;SDS011;5826;54.756;9.192;2023-01-20T08:29:21;1.00;;;0.70;;
11539;SDS011;5826;54.756;9.192;2023-01-20T08:31:46;1.30;;;0.70;;
11539;SDS011;5826;54.756;9.192;2023-01-20T08:34:12;1.30;;;0.70;;
11539;SDS011;5826;54.756;9.192;2023-01-20T08:36:38;0.70;;;0.70;;
11539;SDS011;5826;54.756;9.192;2023-01-20T08:39:06;0.53;;;0.50;;
11539;SDS011;5826;54.756;9.192;2023-01-20T08:41:34;0.50;;;0.50;;
11539;SDS011;5826;54.756;9.192;2023-01-20T08:44:02;1.27;;;0.80;;
11539;SDS011;5826;54.756;9.192;2023-01-20T08:46:29;2.93;;;1.60;;
11539;SDS011;5826;54.756;9.192;2023-01-20T08:48:54;3.87;;;2.37;;
11539;SDS011;5826;54.756;9.192;2023-01-20T08:51:21;6.60;;;3.70;;
11539;SDS011;5826;54.756;9.192;2023-01-20T08:53:49;3.43;;;2.40;;
11539;SDS011;5826;54.756;9.192;2023-01-20T08:56:15;3.50;;;2.30;;
11539;SDS011;5826;54.756;9.192;2023-01-20T08:58:41;3.00;;;2.07;;
11539;SDS011;5826;54.756;9.192;2023-01-20T09:01:11;2.00;;;1.40;;
11539;SDS011;5826;54.756;9.192;2023-01-20T09:03:41;2.07;;;1.30;;
11539;SDS011;5826;54.756;9.192;2023-01-20T09:06:07;1.80;;;1.30;;
11539;SDS011;5826;54.756;9.192;2023-01-20T09:08:33;1.47;;;1.30;;
11539;SDS011;5826;54.756;9.192;2023-01-20T09:11:02;1.77;;;1.10;;
11539;SDS011;5826;54.756;9.192;2023-01-20T09:13:30;1.57;;;1.00;;
11539;SDS011;5826;54.756;9.192;2023-01-20T09:15:55;1.13;;;1.00;;
11539;SDS011;5826;54.756;9.192;2023-01-20T09:18:21;0.90;;;0.73;;
11539;SDS011;5826;54.756;9.192;2023-01-20T09:20:47;1.03;;;0.80;;
11539;SDS011;5826;54.756;9.192;2023-01-20T09:23:12;1.10;;;0.70;;
11539;SDS011;5826;54.756;9.192;2023-01-20T09:25:38;0.97;;;0.67;;
11539;SDS011;5826;54.756;9.192;2023-01-20T09:28:03;1.53;;;0.70;;
11539;SDS011;5826;54.756;9.192;2023-01-20T09:30:29;1.10;;;0.80;;
11539;SDS011;5826;54.756;9.192;2023-01-20T09:32:54;0.60;;;0.60;;
11539;SDS011;5826;54.756;9.192;2023-01-20T09:35:23;1.43;;;0.70;;
11539;SDS011;5826;54.756;9.192;2023-01-20T09:37:49;2.10;;;0.83;;
11539;SDS011;5826;54.756;9.192;2023-01-20T09:40:54;1.47;;;0.70;;
11539;SDS011;5826;54.756;9.192;2023-01-20T09:53:39;2.70;;;1.10;;
11539;SDS011;5826;54.756;9.192;2023-01-20T09:56:03;2.97;;;1.73;;
11539;SDS011;5826;54.756;9.192;2023-01-20T10:01:38;2.87;;;1.87;;
11539;SDS011;5826;54.756;9.192;2023-01-20T10:07:07;5.70;;;3.17;;
11539;SDS011;5826;54.756;9.192;2023-01-20T10:09:36;5.10;;;2.87;;
11539;SDS011;5826;54.756;9.192;2023-01-20T10:12:20;6.23;;;3.23;;
11539;SDS011;5826;54.756;9.192;2023-01-20T10:20:49;4.83;;;3.40;;
11539;SDS011;5826;54.756;9.192;2023-01-20T10:23:23;4.57;;;3.63;;
11539;SDS011;5826;54.756;9.192;2023-01-20T10:25:58;4.63;;;3.10;;
11539;SDS011;5826;54.756;9.192;2023-01-20T10:28:31;7.33;;;4.30;;
11539;SDS011;5826;54.756;9.192;2023-01-20T10:31:08;5.33;;;3.63;;
11539;SDS011;5826;54.756;9.192;2023-01-20T10:33:42;4.37;;;3.33;;
11539;SDS011;5826;54.756;9.192;2023-01-20T10:36:13;7.30;;;5.17;;
11539;SDS011;5826;54.756;9.192;2023-01-20T10:41:34;5.87;;;4.30;;
11539;SDS011;5826;54.756;9.192;2023-01-20T10:44:09;7.70;;;4.63;;
11539;SDS011;5826;54.756;9.192;2023-01-20T10:47:03;6.97;;;5.40;;
11539;SDS011;5826;54.756;9.192;2023-01-20T10:49:50;6.20;;;4.10;;
11539;SDS011;5826;54.756;9.192;2023-01-20T11:00:49;6.63;;;5.33;;
11539;SDS011;5826;54.756;9.192;2023-01-20T11:03:16;6.07;;;5.07;;
11539;SDS011;5826;54.756;9.192;2023-01-20T11:05:44;5.57;;;4.37;;
11539;SDS011;5826;54.756;9.192;2023-01-20T11:08:19;5.77;;;4.40;;
11539;SDS011;5826;54.756;9.192;2023-01-20T11:10:53;9.17;;;4.93;;
11539;SDS011;5826;54.756;9.192;2023-01-20T11:13:22;7.13;;;5.13;;
11539;SDS011;5826;54.756;9.192;2023-01-20T11:15:50;9.20;;;5.90;;
11539;SDS011;5826;54.756;9.192;2023-01-20T11:18:20;8.60;;;5.83;;
11539;SDS011;5826;54.756;9.192;2023-01-20T11:21:05;5.70;;;4.63;;
11539;SDS011;5826;54.756;9.192;2023-01-20T11:23:40;7.13;;;5.30;;
11539;SDS011;5826;54.756;9.192;2023-01-20T11:26:22;6.10;;;4.67;;
11539;SDS011;5826;54.756;9.192;2023-01-20T11:28:58;6.73;;;5.43;;
11539;SDS011;5826;54.756;9.192;2023-01-20T11:31:43;8.03;;;5.40;;
11539;SDS011;5826;54.756;9.192;2023-01-20T11:36:51;7.10;;;4.37;;
11539;SDS011;5826;54.756;9.192;2023-01-20T11:42:23;7.60;;;5.33;;
11539;SDS011;5826;54.756;9.192;2023-01-20T11:44:52;8.73;;;5.60;;
11539;SDS011;5826;54.756;9.192;2023-01-20T11:52:29;7.50;;;4.57;;
11539;SDS011;5826;54.756;9.192;2023-01-20T11:55:09;5.77;;;4.30;;
11539;SDS011;5826;54.756;9.192;2023-01-20T11:57:42;6.80;;;5.10;;
11539;SDS011;5826;54.756;9.192;2023-01-20T12:00:57;4.90;;;3.87;;
11539;SDS011;5826;54.756;9.192;2023-01-20T12:06:02;7.23;;;4.73;;
11539;SDS011;5826;54.756;9.192;2023-01-20T12:08:48;6.17;;;4.50;;
11539;SDS011;5826;54.756;9.192;2023-01-20T12:11:38;4.83;;;3.57;;
11539;SDS011;5826;54.756;9.192;2023-01-20T12:22:25;6.33;;;4.97;;
11539;SDS011;5826;54.756;9.192;2023-01-20T12:25:26;8.20;;;4.77;;
11539;SDS011;5826;54.756;9.192;2023-01-20T12:28:04;5.43;;;4.10;;
11539;SDS011;5826;54.756;9.192;2023-01-20T12:30:39;4.30;;;3.10;;
11539;SDS011;5826;54.756;9.192;2023-01-20T12:33:16;4.77;;;3.47;;
11539;SDS011;5826;54.756;9.192;2023-01-20T12:36:10;3.43;;;2.90;;
11539;SDS011;5826;54.756;9.192;2023-01-20T12:38:52;7.10;;;4.63;;
11539;SDS011;5826;54.756;9.192;2023-01-20T12:41:33;8.43;;;4.00;;
11539;SDS011;5826;54.756;9.192;2023-01-20T12:44:26;3.70;;;3.23;;
11539;SDS011;5826;54.756;9.192;2023-01-20T12:53:33;4.47;;;3.57;;
11539;SDS011;5826;54.756;9.192;2023-01-20T12:56:31;4.67;;;3.10;;
11539;SDS011;5826;54.756;9.192;2023-01-20T13:10:35;4.33;;;3.37;;
11539;SDS011;5826;54.756;9.192;2023-01-20T13:13:43;5.03;;;3.40;;
11539;SDS011;5826;54.756;9.192;2023-01-20T13:16:42;4.37;;;3.70;;
11539;SDS011;5826;54.756;9.192;2023-01-20T13:19:28;8.67;;;6.17;;
11539;SDS011;5826;54.756;9.192;2023-01-20T13:22:09;6.00;;;4.30;;
11539;SDS011;5826;54.756;9.192;2023-01-20T13:24:40;4.87;;;4.17;;
11539;SDS011;5826;54.756;9.192;2023-01-20T13:27:08;6.73;;;5.03;;
11539;SDS011;5826;54.756;9.192;2023-01-20T13:31:59;11.20;;;8.07;;
11539;SDS011;5826;54.756;9.192;2023-01-20T13:45:14;7.00;;;6.00;;
11539;SDS011;5826;54.756;9.192;2023-01-20T13:50:24;7.03;;;5.30;;
11539;SDS011;5826;54.756;9.192;2023-01-20T13:53:05;8.87;;;5.07;;
11539;SDS011;5826;54.756;9.192;2023-01-20T13:58:14;6.10;;;4.20;;
11539;SDS011;5826;54.756;9.192;2023-01-20T14:00:47;5.93;;;4.57;;
11539;SDS011;5826;54.756;9.192;2023-01-20T14:05:47;6.97;;;4.73;;
11539;SDS011;5826;54.756;9.192;2023-01-20T14:08:14;4.77;;;3.90;;
11539;SDS011;5826;54.756;9.192;2023-01-20T14:10:40;4.93;;;4.30;;
11539;SDS011;5826;54.756;9.192;2023-01-20T14:13:22;5.83;;;5.13;;
11539;SDS011;5826;54.756;9.192;2023-01-20T14:15:50;7.87;;;6.13;;
11539;SDS011;5826;54.756;9.192;2023-01-20T14:18:17;7.73;;;6.00;;
11539;SDS011;5826;54.756;9.192;2023-01-20T14:21:00;7.03;;;5.57;;
11539;SDS011;5826;54.756;9.192;2023-01-20T14:23:34;9.63;;;6.13;;
11539;SDS011;5826;54.756;9.192;2023-01-20T14:26:03;8.87;;;6.53;;
11539;SDS011;5826;54.756;9.192;2023-01-20T14:28:43;10.43;;;6.30;;
11539;SDS011;5826;54.756;9.192;2023-01-20T14:33:45;6.73;;;4.97;;
11539;SDS011;5826;54.756;9.192;2023-01-20T14:36:25;6.43;;;4.73;;
11539;SDS011;5826;54.756;9.192;2023-01-20T14:38:55;6.90;;;5.10;;
11539;SDS011;5826;54.756;9.192;2023-01-20T14:41:32;6.03;;;4.70;;
11539;SDS011;5826;54.756;9.192;2023-01-20T14:44:13;6.03;;;4.53;;
11539;SDS011;5826;54.756;9.192;2023-01-20T14:46:41;7.97;;;4.83;;
11539;SDS011;5826;54.756;9.192;2023-01-20T14:49:08;5.73;;;4.40;;
11539;SDS011;5826;54.756;9.192;2023-01-20T14:51:38;7.53;;;5.90;;
11539;SDS011;5826;54.756;9.192;2023-01-20T14:57:00;6.63;;;4.73;;
11539;SDS011;5826;54.756;9.192;2023-01-20T14:59:58;5.57;;;4.80;;
11539;SDS011;5826;54.756;9.192;2023-01-20T15:02:29;7.10;;;5.20;;
11539;SDS011;5826;54.756;9.192;2023-01-20T15:04:57;7.90;;;5.03;;
11539;SDS011;5826;54.756;9.192;2023-01-20T15:07:23;6.60;;;4.80;;
11539;SDS011;5826;54.756;9.192;2023-01-20T15:09:54;7.23;;;5.20;;
11539;SDS011;5826;54.756;9.192;2023-01-20T15:12:50;5.87;;;4.67;;
11539;SDS011;5826;54.756;9.192;2023-01-20T15:15:32;6.90;;;4.63;;
11539;SDS011;5826;54.756;9.192;2023-01-20T15:20:39;7.30;;;4.73;;
11539;SDS011;5826;54.756;9.192;2023-01-20T15:23:50;4.93;;;3.77;;
11539;SDS011;5826;54.756;9.192;2023-01-20T15:26:09;5.47;;;4.17;;
11539;SDS011;5826;54.756;9.192;2023-01-20T15:28:46;6.17;;;5.37;;
11539;SDS011;5826;54.756;9.192;2023-01-20T15:31:12;6.97;;;5.50;;
11539;SDS011;5826;54.756;9.192;2023-01-20T15:33:39;7.30;;;6.60;;
11539;SDS011;5826;54.756;9.192;2023-01-20T15:36:15;7.20;;;6.30;;
11539;SDS011;5826;54.756;9.192;2023-01-20T15:38:48;7.47;;;6.67;;
11539;SDS011;5826;54.756;9.192;2023-01-20T15:41:15;6.40;;;5.80;;
11539;SDS011;5826;54.756;9.192;2023-01-20T15:43:40;6.60;;;5.90;;
11539;SDS011;5826;54.756;9.192;2023-01-20T15:46:09;7.27;;;6.10;;
11539;SDS011;5826;54.756;9.192;2023-01-20T15:48:36;6.40;;;5.17;;
11539;SDS011;5826;54.756;9.192;2023-01-20T15:51:02;6.80;;;5.50;;
11539;SDS011;5826;54.756;9.192;2023-01-20T15:53:28;5.83;;;5.23;;
11539;SDS011;5826;54.756;9.192;2023-01-20T15:55:53;5.20;;;4.70;;
11539;SDS011;5826;54.756;9.192;2023-01-20T15:58:26;7.20;;;5.70;;
11539;SDS011;5826;54.756;9.192;2023-01-20T16:00:53;6.13;;;5.53;;
11539;SDS011;5826;54.756;9.192;2023-01-20T16:03:21;6.20;;;5.33;;
11539;SDS011;5826;54.756;9.192;2023-01-20T16:05:49;6.20;;;5.60;;
11539;SDS011;5826;54.756;9.192;2023-01-20T16:08:16;7.23;;;5.50;;
11539;SDS011;5826;54.756;9.192;2023-01-20T16:10:43;7.33;;;5.87;;
11539;SDS011;5826;54.756;9.192;2023-01-20T16:13:09;6.73;;;5.70;;
11539;SDS011;5826;54.756;9.192;2023-01-20T16:15:35;6.70;;;5.70;;
11539;SDS011;5826;54.756;9.192;2023-01-20T16:18:01;7.40;;;5.83;;
11539;SDS011;5826;54.756;9.192;2023-01-20T16:20:27;7.07;;;6.10;;
11539;SDS011;5826;54.756;9.192;2023-01-20T16:22:53;7.03;;;6.23;;
11539;SDS011;5826;54.756;9.192;2023-01-20T16:25:19;6.97;;;6.17;;
11539;SDS011;5826;54.756;9.192;2023-01-20T16:27:44;5.93;;;5.33;;
11539;SDS011;5826;54.756;9.192;2023-01-20T16:30:14;6.07;;;5.37;;
11539;SDS011;5826;54.756;9.192;2023-01-20T16:32:41;6.70;;;5.13;;
11539;SDS011;5826;54.756;9.192;2023-01-20T16:35:10;5.47;;;4.50;;
11539;SDS011;5826;54.756;9.192;2023-01-20T16:37:36;5.23;;;4.57;;
11539;SDS011;5826;54.756;9.192;2023-01-20T16:40:01;5.20;;;4.70;;
11539;SDS011;5826;54.756;9.192;2023-01-20T16:42:27;5.00;;;4.50;;
11539;SDS011;5826;54.756;9.192;2023-01-20T16:44:53;5.33;;;4.80;;
11539;SDS011;5826;54.756;9.192;2023-01-20T16:47:18;6.50;;;5.07;;
11539;SDS011;5826;54.756;9.192;2023-01-20T16:49:44;6.17;;;4.80;;
11539;SDS011;5826;54.756;9.192;2023-01-20T16:52:10;5.23;;;4.73;;
11539;SDS011;5826;54.756;9.192;2023-01-20T16:54:36;5.43;;;4.90;;
11539;SDS011;5826;54.756;9.192;2023-01-20T16:57:01;5.60;;;4.80;;
11539;SDS011;5826;54.756;9.192;2023-01-20T16:59:27;4.53;;;4.13;;
11539;SDS011;5826;54.756;9.192;2023-01-20T17:01:53;5.37;;;4.73;;
11539;SDS011;5826;54.756;9.192;2023-01-20T17:04:19;5.03;;;4.47;;
11539;SDS011;5826;54.756;9.192;2023-01-20T17:06:44;4.77;;;4.27;;
11539;SDS011;5826;54.756;9.192;2023-01-20T17:09:10;5.57;;;4.70;;
11539;SDS011;5826;54.756;9.192;2023-01-20T17:11:36;5.00;;;4.47;;
11539;SDS011;5826;54.756;9.192;2023-01-20T17:14:04;5.80;;;4.27;;
11539;SDS011;5826;54.756;9.192;2023-01-20T17:16:32;4.63;;;4.13;;
11539;SDS011;5826;54.756;9.192;2023-01-20T17:18:58;5.00;;;4.30;;
11539;SDS011;5826;54.756;9.192;2023-01-20T17:21:25;4.90;;;4.40;;
11539;SDS011;5826;54.756;9.192;2023-01-20T17:23:56;4.57;;;4.17;;
11539;SDS011;5826;54.756;9.192;2023-01-20T17:26:26;5.83;;;4.70;;
11539;SDS011;5826;54.756;9.192;2023-01-20T17:28:56;6.47;;;4.87;;
11539;SDS011;5826;54.756;9.192;2023-01-20T17:31:26;8.57;;;5.83;;